PWSweather.com
Personal Weather Stations
Station Observations
IHTIMAN1
Neighbourhood 1, IhtimanBG 2050

Neighbourhood 1IhtimanBG 2050

Lat: 42.436852, Lon: 23.817921

Elevation: 2066

Station Type: Oregon Scientific WMR968

http://ihtiman-meteo.com

High Low Average
Temperature 56.3°F13.5°F 49.8°F9.9°F 52.8°F11.6°F
Dew Point 47.4°F8.6°F 42.4°F5.8°F 44.8°F7.1°F
Winds 10.9 mph NW17.5 mph NW Calm Calm 4.3 mph 6.9 mph
Wind Gusts 16.8 mph27.0 mph -- 6.2 mph10.0 mph
Humidity 86% 66% 74%
Pressure 30.06 in1017.90 in 29.94 in1013.90 in -
Precipitation 0.00 in0.00 in - -
Hour Temp Dew Point Humidity Winds Wind Gusts Pressure Precip Precip Rate Daily Precip Total
12:00 AM 49.8°F9.9°C 43.6°F6.4°C 79% 5.9 mph NNW9.5 kmh NNW 8.7 mph14.0 kmh 30.00 in1015.9 mb - 0.00 in0.0 mm 0.00 in0.0 mm
12:10 AM 50.2°F10.1°C 43.6°F6.4°C 78% 3.2 mph NNW5.1 kmh NNW 5.8 mph9.3 kmh 30.00 in1015.9 mb - 0.00 in0.0 mm 0.00 in0.0 mm
12:20 AM 50.2°F10.1°C 43.2°F6.2°C 77% 4.1 mph NW6.6 kmh NW 6.3 mph10.1 kmh 29.97 in1014.9 mb - 0.00 in0.0 mm 0.00 in0.0 mm
12:30 AM 50.5°F10.3°C 43.6°F6.4°C 77% 0.3 mph N0.5 kmh N 2.7 mph4.3 kmh 29.97 in1014.9 mb - 0.00 in0.0 mm 0.00 in0.0 mm
12:40 AM 50.5°F10.3°C 43.3°F6.3°C 76% 4.9 mph N7.9 kmh N 7.2 mph11.6 kmh 30.00 in1015.9 mb - 0.00 in0.0 mm 0.00 in0.0 mm
12:50 AM 50.5°F10.3°C 43.3°F6.3°C 76% 5.6 mph N9.0 kmh N 7.6 mph12.2 kmh 30.00 in1015.9 mb - 0.00 in0.0 mm 0.00 in0.0 mm
01:00 AM 50.4°F10.2°C 43.1°F6.2°C 76% 5.8 mph NNW9.3 kmh NNW 6.7 mph10.8 kmh 30.00 in1015.9 mb - 0.00 in0.0 mm 0.00 in0.0 mm
01:10 AM 50.4°F10.2°C 43.1°F6.2°C 76% 5.8 mph NNW9.3 kmh NNW 8.3 mph13.4 kmh 29.97 in1014.9 mb - 0.00 in0.0 mm 0.00 in0.0 mm
01:20 AM 50.2°F10.1°C 42.9°F6.1°C 76% 5.0 mph N8.0 kmh N 5.8 mph9.3 kmh 30.00 in1015.9 mb - 0.00 in0.0 mm 0.00 in0.0 mm
01:30 AM 50.2°F10.1°C 42.9°F6.1°C 76% 3.6 mph N5.8 kmh N 5.4 mph8.7 kmh 30.00 in1015.9 mb - 0.00 in0.0 mm 0.00 in0.0 mm
01:40 AM 50.2°F10.1°C 42.9°F6.1°C 76% 0.1 mph NNW0.2 kmh NNW 4.0 mph6.4 kmh 29.97 in1014.9 mb - 0.00 in0.0 mm 0.00 in0.0 mm
01:50 AM 50.2°F10.1°C 42.9°F6.1°C 76% Calm Calm 2.2 mph3.5 kmh 29.97 in1014.9 mb - 0.00 in0.0 mm 0.00 in0.0 mm
02:00 AM 50.0°F10.0°C 42.7°F5.9°C 76% Calm Calm -- 29.97 in1014.9 mb - 0.00 in0.0 mm 0.00 in0.0 mm
02:10 AM 50.0°F10.0°C 43.1°F6.2°C 77% Calm Calm 2.2 mph3.5 kmh 29.97 in1014.9 mb - 0.00 in0.0 mm 0.00 in0.0 mm
02:20 AM 50.2°F10.1°C 43.2°F6.2°C 77% Calm Calm -- 29.97 in1014.9 mb - 0.00 in0.0 mm 0.00 in0.0 mm
02:30 AM 50.2°F10.1°C 43.2°F6.2°C 77% Calm Calm 2.2 mph3.5 kmh 29.97 in1014.9 mb - 0.00 in0.0 mm 0.00 in0.0 mm
02:40 AM 50.0°F10.0°C 43.1°F6.2°C 77% Calm Calm -- 29.97 in1014.9 mb - 0.00 in0.0 mm 0.00 in0.0 mm
02:50 AM 49.8°F9.9°C 42.9°F6.1°C 77% Calm Calm 2.7 mph4.3 kmh 29.97 in1014.9 mb - 0.00 in0.0 mm 0.00 in0.0 mm
03:00 AM 49.8°F9.9°C 42.9°F6.1°C 77% Calm Calm 2.2 mph3.5 kmh 29.97 in1014.9 mb - 0.00 in0.0 mm 0.00 in0.0 mm
03:10 AM 50.0°F10.0°C 43.1°F6.2°C 77% 6.0 mph NW9.7 kmh NW 6.3 mph10.1 kmh 29.97 in1014.9 mb - 0.00 in0.0 mm 0.00 in0.0 mm
03:20 AM 50.2°F10.1°C 43.2°F6.2°C 77% 3.6 mph WNW5.8 kmh WNW 8.3 mph13.4 kmh 29.97 in1014.9 mb - 0.00 in0.0 mm 0.00 in0.0 mm
03:30 AM 50.4°F10.2°C 43.4°F6.3°C 77% 5.1 mph NW8.2 kmh NW 10.1 mph16.3 kmh 29.97 in1014.9 mb - 0.00 in0.0 mm 0.00 in0.0 mm
03:40 AM 50.4°F10.2°C 43.1°F6.2°C 76% 6.6 mph NW10.6 kmh NW 8.3 mph13.4 kmh 29.97 in1014.9 mb - 0.00 in0.0 mm 0.00 in0.0 mm
03:50 AM 50.2°F10.1°C 42.9°F6.1°C 76% 4.8 mph NW7.7 kmh NW 6.3 mph10.1 kmh 29.97 in1014.9 mb - 0.00 in0.0 mm 0.00 in0.0 mm
04:00 AM 50.0°F10.0°C 42.7°F5.9°C 76% 7.0 mph N11.3 kmh N 8.7 mph14.0 kmh 29.97 in1014.9 mb - 0.00 in0.0 mm 0.00 in0.0 mm
04:10 AM 49.8°F9.9°C 42.6°F5.9°C 76% 5.3 mph NNE8.5 kmh NNE 5.8 mph9.3 kmh 29.97 in1014.9 mb - 0.00 in0.0 mm 0.00 in0.0 mm
04:20 AM 49.8°F9.9°C 42.6°F5.9°C 76% 4.5 mph NW7.2 kmh NW 3.1 mph5.0 kmh 29.97 in1014.9 mb - 0.00 in0.0 mm 0.00 in0.0 mm
04:30 AM 49.8°F9.9°C 42.6°F5.9°C 76% 7.6 mph NNW12.2 kmh NNW 10.1 mph16.3 kmh 29.97 in1014.9 mb - 0.00 in0.0 mm 0.00 in0.0 mm
04:40 AM 50.0°F10.0°C 42.7°F5.9°C 76% 8.7 mph NW14.0 kmh NW 10.9 mph17.5 kmh 29.94 in1013.9 mb - 0.00 in0.0 mm 0.00 in0.0 mm
04:50 AM 50.5°F10.3°C 43.2°F6.2°C 76% 7.7 mph NNW12.4 kmh NNW 8.3 mph13.4 kmh 29.97 in1014.9 mb - 0.00 in0.0 mm 0.00 in0.0 mm
05:00 AM 50.7°F10.4°C 43.1°F6.2°C 75% 8.3 mph NW13.4 kmh NW 9.2 mph14.8 kmh 29.97 in1014.9 mb - 0.00 in0.0 mm 0.00 in0.0 mm
05:10 AM 50.9°F10.5°C 43.3°F6.3°C 75% 6.2 mph NW10.0 kmh NW 8.7 mph14.0 kmh 29.97 in1014.9 mb - 0.00 in0.0 mm 0.00 in0.0 mm
05:20 AM 50.8°F10.4°C 43.2°F6.2°C 75% 6.4 mph NW10.3 kmh NW 6.3 mph10.1 kmh 29.97 in1014.9 mb - 0.00 in0.0 mm 0.00 in0.0 mm
05:30 AM 50.5°F10.3°C 42.6°F5.9°C 74% 6.7 mph NW10.8 kmh NW 7.2 mph11.6 kmh 29.97 in1014.9 mb - 0.00 in0.0 mm 0.00 in0.0 mm
05:40 AM 50.4°F10.2°C 42.4°F5.8°C 74% 6.3 mph NW10.1 kmh NW 10.9 mph17.5 kmh 29.97 in1014.9 mb - 0.00 in0.0 mm 0.00 in0.0 mm
05:50 AM 50.4°F10.2°C 42.4°F5.8°C 74% 7.6 mph NW12.2 kmh NW 6.3 mph10.1 kmh 29.97 in1014.9 mb - 0.00 in0.0 mm 0.00 in0.0 mm
06:00 AM 50.5°F10.3°C 42.6°F5.9°C 74% 7.0 mph NW11.3 kmh NW 8.3 mph13.4 kmh 29.97 in1014.9 mb - 0.00 in0.0 mm 0.00 in0.0 mm
06:10 AM 50.7°F10.4°C 42.7°F5.9°C 74% 5.9 mph NW9.5 kmh NW 8.0 mph12.9 kmh 29.97 in1014.9 mb - 0.00 in0.0 mm 0.00 in0.0 mm
06:20 AM 50.9°F10.5°C 42.9°F6.1°C 74% 7.0 mph NW11.3 kmh NW 10.5 mph16.9 kmh 29.97 in1014.9 mb - 0.00 in0.0 mm 0.00 in0.0 mm
06:30 AM 51.1°F10.6°C 43.4°F6.3°C 75% 6.6 mph NW10.6 kmh NW 10.1 mph16.3 kmh 29.97 in1014.9 mb - 0.00 in0.0 mm 0.00 in0.0 mm
06:40 AM 51.3°F10.7°C 43.3°F6.3°C 74% 3.3 mph NW5.3 kmh NW 6.3 mph10.1 kmh 29.97 in1014.9 mb - 0.00 in0.0 mm 0.00 in0.0 mm
06:50 AM 51.4°F10.8°C 43.4°F6.3°C 74% 5.4 mph WNW8.7 kmh WNW 10.5 mph16.9 kmh 29.97 in1014.9 mb - 0.00 in0.0 mm 0.00 in0.0 mm
07:00 AM 51.6°F10.9°C 43.6°F6.4°C 74% 3.6 mph W5.8 kmh W 9.6 mph15.4 kmh 29.97 in1014.9 mb - 0.00 in0.0 mm 0.00 in0.0 mm
07:10 AM 51.6°F10.9°C 43.6°F6.4°C 74% 6.6 mph WNW10.6 kmh WNW 8.7 mph14.0 kmh 29.97 in1014.9 mb - 0.00 in0.0 mm 0.00 in0.0 mm
07:20 AM 51.9°F11.1°C 43.5°F6.4°C 73% 8.3 mph WNW13.4 kmh WNW 10.1 mph16.3 kmh 29.97 in1014.9 mb - 0.00 in0.0 mm 0.00 in0.0 mm
07:30 AM 52.2°F11.2°C 43.8°F6.6°C 73% 6.0 mph NW9.7 kmh NW 11.4 mph18.3 kmh 29.97 in1014.9 mb - 0.00 in0.0 mm 0.00 in0.0 mm
07:40 AM 52.7°F11.5°C 43.6°F6.4°C 71% 8.3 mph WSW13.4 kmh WSW 9.6 mph15.4 kmh 29.97 in1014.9 mb - 0.00 in0.0 mm 0.00 in0.0 mm
07:50 AM 53.1°F11.7°C 43.9°F6.6°C 71% 7.3 mph NW11.7 kmh NW 10.9 mph17.5 kmh 29.97 in1014.9 mb - 0.00 in0.0 mm 0.00 in0.0 mm
08:00 AM 53.3°F11.8°C 44.2°F6.8°C 71% 6.3 mph W10.1 kmh W 4.9 mph7.9 kmh 29.97 in1014.9 mb - 0.00 in0.0 mm 0.00 in0.0 mm
08:10 AM 53.9°F12.2°C 44.4°F6.9°C 70% 6.3 mph WNW10.1 kmh WNW 8.3 mph13.4 kmh 29.97 in1014.9 mb - 0.00 in0.0 mm 0.00 in0.0 mm
08:20 AM 54.5°F12.5°C 44.9°F7.2°C 70% 8.4 mph NW13.5 kmh NW 12.7 mph20.4 kmh 29.97 in1014.9 mb - 0.00 in0.0 mm 0.00 in0.0 mm
08:30 AM 55.4°F13.0°C 45.4°F7.4°C 69% 5.6 mph NW9.0 kmh NW 6.3 mph10.1 kmh 29.97 in1014.9 mb - 0.00 in0.0 mm 0.00 in0.0 mm
08:40 AM 55.2°F12.9°C 45.2°F7.3°C 69% 5.1 mph NW8.2 kmh NW 8.7 mph14.0 kmh 29.97 in1014.9 mb - 0.00 in0.0 mm 0.00 in0.0 mm
08:50 AM 55.5°F13.1°C 45.5°F7.5°C 69% 6.0 mph NW9.7 kmh NW 8.0 mph12.9 kmh 29.97 in1014.9 mb - 0.00 in0.0 mm 0.00 in0.0 mm
09:00 AM 55.2°F12.9°C 45.2°F7.3°C 69% 5.8 mph N9.3 kmh N 8.3 mph13.4 kmh 29.97 in1014.9 mb - 0.00 in0.0 mm 0.00 in0.0 mm
09:10 AM 54.5°F12.5°C 44.5°F6.9°C 69% 6.1 mph NNW9.8 kmh NNW 8.3 mph13.4 kmh 29.97 in1014.9 mb - 0.00 in0.0 mm 0.00 in0.0 mm
09:20 AM 54.3°F12.4°C 44.4°F6.9°C 69% 4.6 mph NW7.4 kmh NW 8.3 mph13.4 kmh 29.97 in1014.9 mb - 0.00 in0.0 mm 0.00 in0.0 mm
09:30 AM 54.3°F12.4°C 44.4°F6.9°C 69% 5.2 mph NNW8.4 kmh NNW 6.3 mph10.1 kmh 29.97 in1014.9 mb - 0.00 in0.0 mm 0.00 in0.0 mm
09:40 AM 54.3°F12.4°C 44.4°F6.9°C 69% 6.3 mph N10.1 kmh N 5.8 mph9.3 kmh 29.97 in1014.9 mb - 0.00 in0.0 mm 0.00 in0.0 mm
09:50 AM 54.1°F12.3°C 44.6°F7.0°C 70% 5.2 mph NW8.4 kmh NW 7.6 mph12.2 kmh 29.97 in1014.9 mb - 0.00 in0.0 mm 0.00 in0.0 mm
10:00 AM 54.6°F12.6°C 44.6°F7.0°C 69% 5.5 mph WNW8.9 kmh WNW 10.1 mph16.3 kmh 29.97 in1014.9 mb - 0.00 in0.0 mm 0.00 in0.0 mm
10:10 AM 55.4°F13.0°C 45.0°F7.2°C 68% 7.9 mph W12.7 kmh W 10.5 mph16.9 kmh 29.97 in1014.9 mb - 0.00 in0.0 mm 0.00 in0.0 mm
10:20 AM 55.4°F13.0°C 45.0°F7.2°C 68% 8.7 mph NW14.0 kmh NW 12.7 mph20.4 kmh 29.97 in1014.9 mb - 0.00 in0.0 mm 0.00 in0.0 mm
10:30 AM 55.8°F13.2°C 45.4°F7.4°C 68% 9.6 mph NW15.4 kmh NW 11.4 mph18.3 kmh 29.97 in1014.9 mb - 0.00 in0.0 mm 0.00 in0.0 mm
10:40 AM 55.9°F13.3°C 45.5°F7.5°C 68% 7.7 mph NW12.4 kmh NW 16.8 mph27.0 kmh 29.97 in1014.9 mb - 0.00 in0.0 mm 0.00 in0.0 mm
10:50 AM 55.9°F13.3°C 44.7°F7.1°C 66% 9.0 mph NW14.5 kmh NW 9.6 mph15.4 kmh 30.00 in1015.9 mb - 0.00 in0.0 mm 0.00 in0.0 mm
11:00 AM 55.5°F13.1°C 44.7°F7.1°C 67% 6.4 mph WNW10.3 kmh WNW 8.7 mph14.0 kmh 30.00 in1015.9 mb - 0.00 in0.0 mm 0.00 in0.0 mm
11:10 AM 55.0°F12.8°C 44.7°F7.1°C 68% 6.8 mph W10.9 kmh W 10.5 mph16.9 kmh 30.00 in1015.9 mb - 0.00 in0.0 mm 0.00 in0.0 mm
11:20 AM 54.7°F12.6°C 44.3°F6.8°C 68% 3.8 mph W6.1 kmh W 10.5 mph16.9 kmh 30.00 in1015.9 mb - 0.00 in0.0 mm 0.00 in0.0 mm
11:30 AM 54.7°F12.6°C 44.3°F6.8°C 68% 8.0 mph NW12.9 kmh NW 8.3 mph13.4 kmh 30.00 in1015.9 mb - 0.00 in0.0 mm 0.00 in0.0 mm
11:40 AM 54.9°F12.7°C 44.5°F6.9°C 68% 7.6 mph WNW12.2 kmh WNW 12.3 mph19.8 kmh 30.00 in1015.9 mb - 0.00 in0.0 mm 0.00 in0.0 mm
11:50 AM 55.2°F12.9°C 44.8°F7.1°C 68% 7.9 mph WNW12.7 kmh WNW 10.1 mph16.3 kmh 30.00 in1015.9 mb - 0.00 in0.0 mm 0.00 in0.0 mm
12:00 PM 55.2°F12.9°C 44.8°F7.1°C 68% 8.1 mph W13.0 kmh W 12.7 mph20.4 kmh 30.00 in1015.9 mb - 0.00 in0.0 mm 0.00 in0.0 mm
12:10 PM 55.0°F12.8°C 44.7°F7.1°C 68% 5.4 mph W8.7 kmh W 7.6 mph12.2 kmh 30.00 in1015.9 mb - 0.00 in0.0 mm 0.00 in0.0 mm
12:20 PM 55.2°F12.9°C 44.8°F7.1°C 68% 7.8 mph WNW12.6 kmh WNW 10.1 mph16.3 kmh 30.00 in1015.9 mb - 0.00 in0.0 mm 0.00 in0.0 mm
12:40 PM 55.8°F13.2°C 45.4°F7.4°C 68% 5.7 mph WNW9.2 kmh WNW 8.3 mph13.4 kmh 30.00 in1015.9 mb - 0.00 in0.0 mm 0.00 in0.0 mm
12:50 PM 55.4°F13.0°C 45.0°F7.2°C 68% 7.6 mph WSW12.2 kmh WSW 10.1 mph16.3 kmh 30.00 in1015.9 mb - 0.00 in0.0 mm 0.00 in0.0 mm
01:00 PM 55.4°F13.0°C 45.0°F7.2°C 68% 6.6 mph W10.6 kmh W 7.6 mph12.2 kmh 30.00 in1015.9 mb - 0.00 in0.0 mm 0.00 in0.0 mm
01:10 PM 55.4°F13.0°C 45.0°F7.2°C 68% 5.8 mph NW9.3 kmh NW 13.2 mph21.2 kmh 30.00 in1015.9 mb - 0.00 in0.0 mm 0.00 in0.0 mm
01:20 PM 55.4°F13.0°C 45.0°F7.2°C 68% 6.5 mph NW10.5 kmh NW 10.1 mph16.3 kmh 30.00 in1015.9 mb - 0.00 in0.0 mm 0.00 in0.0 mm
01:30 PM 55.6°F13.1°C 45.2°F7.3°C 68% 7.5 mph NW12.1 kmh NW 10.5 mph16.9 kmh 30.00 in1015.9 mb - 0.00 in0.0 mm 0.00 in0.0 mm
01:40 PM 55.6°F13.1°C 45.2°F7.3°C 68% 6.1 mph WNW9.8 kmh WNW 9.6 mph15.4 kmh 30.00 in1015.9 mb - 0.00 in0.0 mm 0.00 in0.0 mm
01:50 PM 55.6°F13.1°C 45.2°F7.3°C 68% 9.6 mph WSW15.4 kmh WSW 13.2 mph21.2 kmh 30.00 in1015.9 mb - 0.00 in0.0 mm 0.00 in0.0 mm
02:00 PM 55.8°F13.2°C 45.4°F7.4°C 68% 8.2 mph WNW13.2 kmh WNW 10.9 mph17.5 kmh 30.00 in1015.9 mb - 0.00 in0.0 mm 0.00 in0.0 mm
02:10 PM 55.9°F13.3°C 45.5°F7.5°C 68% 8.7 mph WNW14.0 kmh WNW 15.4 mph24.8 kmh 30.00 in1015.9 mb - 0.00 in0.0 mm 0.00 in0.0 mm
02:20 PM 55.9°F13.3°C 45.5°F7.5°C 68% 4.2 mph W6.8 kmh W 8.0 mph12.9 kmh 30.00 in1015.9 mb - 0.00 in0.0 mm 0.00 in0.0 mm
02:30 PM 55.9°F13.3°C 45.5°F7.5°C 68% 5.8 mph W9.3 kmh W 7.6 mph12.2 kmh 30.00 in1015.9 mb - 0.00 in0.0 mm 0.00 in0.0 mm
02:40 PM 55.9°F13.3°C 45.5°F7.5°C 68% 10.9 mph NW17.5 kmh NW 12.3 mph19.8 kmh 30.00 in1015.9 mb - 0.00 in0.0 mm 0.00 in0.0 mm
02:50 PM 55.9°F13.3°C 45.9°F7.7°C 69% 7.4 mph NE11.9 kmh NE 13.2 mph21.2 kmh 30.00 in1015.9 mb - 0.00 in0.0 mm 0.00 in0.0 mm
03:00 PM 55.9°F13.3°C 45.9°F7.7°C 69% 7.9 mph N12.7 kmh N 11.4 mph18.3 kmh 30.00 in1015.9 mb - 0.00 in0.0 mm 0.00 in0.0 mm
03:10 PM 55.6°F13.1°C 45.6°F7.6°C 69% 7.6 mph NW12.2 kmh NW 8.7 mph14.0 kmh 30.00 in1015.9 mb - 0.00 in0.0 mm 0.00 in0.0 mm
03:20 PM 55.6°F13.1°C 45.6°F7.6°C 69% 7.1 mph N11.4 kmh N 8.0 mph12.9 kmh 30.00 in1015.9 mb - 0.00 in0.0 mm 0.00 in0.0 mm
03:30 PM 55.8°F13.2°C 45.7°F7.6°C 69% Calm Calm -- 30.00 in1015.9 mb - 0.00 in0.0 mm 0.00 in0.0 mm
03:40 PM 55.9°F13.3°C 45.9°F7.7°C 69% Calm Calm -- 30.00 in1015.9 mb - 0.00 in0.0 mm 0.00 in0.0 mm
03:50 PM 56.3°F13.5°C 46.2°F7.9°C 69% Calm Calm -- 30.00 in1015.9 mb - 0.00 in0.0 mm 0.00 in0.0 mm
04:00 PM 56.3°F13.5°C 46.3°F7.9°C 69% Calm Calm -- 30.00 in1015.9 mb - 0.00 in0.0 mm 0.00 in0.0 mm
04:10 PM 56.3°F13.5°C 46.3°F7.9°C 69% Calm Calm -- 30.00 in1015.9 mb - 0.00 in0.0 mm 0.00 in0.0 mm
04:20 PM 56.1°F13.4°C 46.1°F7.8°C 69% Calm Calm -- 30.00 in1015.9 mb - 0.00 in0.0 mm 0.00 in0.0 mm
04:30 PM 55.8°F13.2°C 45.7°F7.6°C 69% Calm Calm -- 30.00 in1015.9 mb - 0.00 in0.0 mm 0.00 in0.0 mm
04:40 PM 55.4°F13.0°C 45.4°F7.4°C 69% Calm Calm -- 30.00 in1015.9 mb - 0.00 in0.0 mm 0.00 in0.0 mm
04:50 PM 55.2°F12.9°C 45.6°F7.6°C 70% Calm Calm -- 30.00 in1015.9 mb - 0.00 in0.0 mm 0.00 in0.0 mm
05:00 PM 55.0°F12.8°C 45.7°F7.6°C 71% Calm Calm -- 30.00 in1015.9 mb - 0.00 in0.0 mm 0.00 in0.0 mm
05:10 PM 54.5°F12.5°C 45.3°F7.4°C 71% Calm Calm -- 30.00 in1015.9 mb - 0.00 in0.0 mm 0.00 in0.0 mm
05:20 PM 54.1°F12.3°C 45.3°F7.4°C 72% Calm Calm -- 30.03 in1016.9 mb - 0.00 in0.0 mm 0.00 in0.0 mm
05:30 PM 54.0°F12.2°C 45.1°F7.3°C 72% Calm Calm -- 30.03 in1016.9 mb - 0.00 in0.0 mm 0.00 in0.0 mm
05:40 PM 54.0°F12.2°C 45.1°F7.3°C 72% Calm Calm -- 30.03 in1016.9 mb - 0.00 in0.0 mm 0.00 in0.0 mm
05:50 PM 53.8°F12.1°C 45.3°F7.4°C 73% Calm Calm -- 30.03 in1016.9 mb - 0.00 in0.0 mm 0.00 in0.0 mm
06:00 PM 53.6°F12.0°C 45.2°F7.3°C 73% Calm Calm -- 30.03 in1016.9 mb - 0.00 in0.0 mm 0.00 in0.0 mm
06:10 PM 53.4°F11.9°C 45.3°F7.4°C 74% Calm Calm -- 30.03 in1016.9 mb - 0.00 in0.0 mm 0.00 in0.0 mm
06:20 PM 53.2°F11.8°C 45.5°F7.5°C 75% Calm Calm -- 30.03 in1016.9 mb - 0.00 in0.0 mm 0.00 in0.0 mm
06:30 PM 53.2°F11.8°C 45.5°F7.5°C 75% Calm Calm -- 30.03 in1016.9 mb - 0.00 in0.0 mm 0.00 in0.0 mm
06:40 PM 53.2°F11.8°C 45.5°F7.5°C 75% Calm Calm -- 30.03 in1016.9 mb - 0.00 in0.0 mm 0.00 in0.0 mm
06:50 PM 52.9°F11.6°C 45.5°F7.5°C 76% Calm Calm -- 30.03 in1016.9 mb - 0.00 in0.0 mm 0.00 in0.0 mm
07:00 PM 52.3°F11.3°C 45.7°F7.6°C 78% Calm Calm -- 30.03 in1016.9 mb - 0.00 in0.0 mm 0.00 in0.0 mm
07:10 PM 52.1°F11.2°C 45.4°F7.4°C 78% Calm Calm -- 30.03 in1016.9 mb - 0.00 in0.0 mm 0.00 in0.0 mm
07:20 PM 51.8°F11.0°C 45.5°F7.5°C 79% Calm Calm -- 30.03 in1016.9 mb - 0.00 in0.0 mm 0.00 in0.0 mm
07:30 PM 51.6°F10.9°C 45.7°F7.6°C 80% Calm Calm -- 30.03 in1016.9 mb - 0.00 in0.0 mm 0.00 in0.0 mm
07:40 PM 51.6°F10.9°C 46.0°F7.8°C 81% Calm Calm -- 30.03 in1016.9 mb - 0.00 in0.0 mm 0.00 in0.0 mm
07:50 PM 51.4°F10.8°C 45.8°F7.7°C 81% Calm Calm -- 30.06 in1017.9 mb - 0.00 in0.0 mm 0.00 in0.0 mm
08:00 PM 51.3°F10.7°C 46.0°F7.8°C 82% Calm Calm -- 30.06 in1017.9 mb - 0.00 in0.0 mm 0.00 in0.0 mm
08:10 PM 51.3°F10.7°C 46.0°F7.8°C 82% Calm Calm -- 30.03 in1016.9 mb - 0.00 in0.0 mm 0.00 in0.0 mm
08:20 PM 51.1°F10.6°C 45.8°F7.7°C 82% Calm Calm -- 30.06 in1017.9 mb - 0.00 in0.0 mm 0.00 in0.0 mm
08:30 PM 51.1°F10.6°C 46.1°F7.8°C 83% Calm Calm -- 30.06 in1017.9 mb - 0.00 in0.0 mm 0.00 in0.0 mm
08:40 PM 50.9°F10.5°C 45.9°F7.7°C 83% Calm Calm -- 30.06 in1017.9 mb - 0.00 in0.0 mm 0.00 in0.0 mm
08:50 PM 50.9°F10.5°C 46.2°F7.9°C 84% 5.4 mph WNW8.7 kmh WNW 6.3 mph10.1 kmh 30.06 in1017.9 mb - 0.00 in0.0 mm 0.00 in0.0 mm
09:00 PM 51.1°F10.6°C 46.4°F8.0°C 84% Calm Calm 2.2 mph3.5 kmh 30.06 in1017.9 mb - 0.00 in0.0 mm 0.00 in0.0 mm
09:10 PM 51.1°F10.6°C 46.4°F8.0°C 84% 2.8 mph NW4.5 kmh NW 4.0 mph6.4 kmh 30.06 in1017.9 mb - 0.00 in0.0 mm 0.00 in0.0 mm
09:20 PM 51.1°F10.6°C 46.7°F8.2°C 85% 6.3 mph W10.1 kmh W 6.3 mph10.1 kmh 30.06 in1017.9 mb - 0.00 in0.0 mm 0.00 in0.0 mm
09:30 PM 51.3°F10.7°C 46.9°F8.3°C 85% Calm Calm -- 30.06 in1017.9 mb - 0.00 in0.0 mm 0.00 in0.0 mm
09:40 PM 51.3°F10.7°C 47.0°F8.3°C 85% 4.0 mph NW6.4 kmh NW 4.0 mph6.4 kmh 30.06 in1017.9 mb - 0.00 in0.0 mm 0.00 in0.0 mm
09:50 PM 51.4°F10.8°C 47.1°F8.4°C 85% 5.4 mph NW8.7 kmh NW 8.3 mph13.4 kmh 30.06 in1017.9 mb - 0.00 in0.0 mm 0.00 in0.0 mm
10:00 PM 51.4°F10.8°C 47.1°F8.4°C 85% 3.7 mph N6.0 kmh N 6.3 mph10.1 kmh 30.06 in1017.9 mb - 0.00 in0.0 mm 0.00 in0.0 mm
10:10 PM 51.4°F10.8°C 47.1°F8.4°C 85% 4.2 mph WNW6.8 kmh WNW 8.7 mph14.0 kmh 30.06 in1017.9 mb - 0.00 in0.0 mm 0.00 in0.0 mm
10:20 PM 51.4°F10.8°C 47.4°F8.6°C 86% 5.4 mph NNW8.7 kmh NNW 8.0 mph12.9 kmh 30.06 in1017.9 mb - 0.00 in0.0 mm 0.00 in0.0 mm
10:30 PM 51.4°F10.8°C 47.4°F8.6°C 86% 5.7 mph W9.2 kmh W 6.3 mph10.1 kmh 30.06 in1017.9 mb - 0.00 in0.0 mm 0.00 in0.0 mm
10:40 PM 51.4°F10.8°C 47.4°F8.6°C 86% 4.9 mph NNW7.9 kmh NNW 7.6 mph12.2 kmh 30.06 in1017.9 mb - 0.00 in0.0 mm 0.00 in0.0 mm
10:50 PM 51.4°F10.8°C 47.1°F8.4°C 85% 5.5 mph NW8.9 kmh NW 8.0 mph12.9 kmh 30.06 in1017.9 mb - 0.00 in0.0 mm 0.00 in0.0 mm
11:00 PM 51.4°F10.8°C 47.1°F8.4°C 85% Calm Calm 5.8 mph9.3 kmh 30.06 in1017.9 mb - 0.00 in0.0 mm 0.00 in0.0 mm
11:10 PM 51.3°F10.7°C 46.9°F8.3°C 85% 4.0 mph NW6.4 kmh NW 8.3 mph13.4 kmh 30.06 in1017.9 mb - 0.00 in0.0 mm 0.00 in0.0 mm
11:20 PM 51.3°F10.7°C 46.9°F8.3°C 85% 5.3 mph NW8.5 kmh NW 8.0 mph12.9 kmh 30.06 in1017.9 mb - 0.00 in0.0 mm 0.00 in0.0 mm
11:30 PM 51.3°F10.7°C 46.9°F8.3°C 85% 6.5 mph NNW10.5 kmh NNW 10.1 mph16.3 kmh 30.06 in1017.9 mb - 0.00 in0.0 mm 0.00 in0.0 mm
11:40 PM 51.3°F10.7°C 46.9°F8.3°C 85% 5.9 mph NNW9.5 kmh NNW 6.3 mph10.1 kmh 30.06 in1017.9 mb - 0.00 in0.0 mm 0.00 in0.0 mm
11:50 PM 51.1°F10.6°C 46.7°F8.2°C 85% 5.3 mph NNW8.5 kmh NNW 6.3 mph10.1 kmh 30.06 in1017.9 mb - 0.00 in0.0 mm 0.00 in0.0 mm